createdAt,value
2019-04-21T00:01:14.437Z,96023.00
2019-04-21T00:03:48.358Z,96020.00
2019-04-21T00:06:29.923Z,96018.33
2019-04-21T00:09:02.393Z,96014.09
2019-04-21T00:11:29.573Z,96013.70
2019-04-21T00:13:49.611Z,96013.83
2019-04-21T00:16:07.493Z,96013.72
2019-04-21T00:18:40.703Z,96012.25
2019-04-21T00:21:12.275Z,96011.55
2019-04-21T00:23:48.972Z,96007.94
2019-04-21T00:26:16.492Z,96005.70
2019-04-21T00:31:24.843Z,96002.12
2019-04-21T00:33:37.317Z,96004.91
2019-04-21T00:36:10.208Z,96000.53
2019-04-21T00:39:04.122Z,95998.66
2019-04-21T00:41:19.269Z,95992.97
2019-04-21T00:43:41.318Z,95993.28
2019-04-21T00:46:03.233Z,95988.55
2019-04-21T00:48:47.587Z,95985.67
2019-04-21T00:51:27.618Z,95981.44
2019-04-21T00:53:52.211Z,95983.20
2019-04-21T00:56:15.318Z,95984.90
2019-04-21T00:58:39.322Z,95982.84
2019-04-21T01:01:12.147Z,95983.48
2019-04-21T01:06:16.356Z,95980.14
2019-04-21T01:08:41.206Z,95977.04
2019-04-21T01:11:01.504Z,95977.14
2019-04-21T01:13:42.620Z,95975.43
2019-04-21T01:16:05.665Z,95975.49
2019-04-21T01:20:47.508Z,95968.39
2019-04-21T01:23:16.720Z,95964.73
2019-04-21T01:25:57.178Z,95956.13
2019-04-21T01:28:29.321Z,95957.23
2019-04-21T01:31:05.589Z,95952.20
2019-04-21T01:33:32.508Z,95946.92
2019-04-21T01:35:54.954Z,95948.97
2019-04-21T01:38:32.009Z,95946.02
2019-04-21T01:41:05.153Z,95949.34
2019-04-21T01:43:24.695Z,95944.42
2019-04-21T01:45:51.954Z,95948.68
2019-04-21T01:48:15.866Z,95947.56
2019-04-21T01:50:47.040Z,95947.67
2019-04-21T01:53:24.359Z,95945.16
2019-04-21T01:56:04.852Z,95947.48
2019-04-21T01:58:27.055Z,95946.59
2019-04-21T02:06:15.938Z,95949.73
2019-04-21T02:08:34.688Z,95948.59
2019-04-21T02:11:05.246Z,95950.60
2019-04-21T02:13:27.974Z,95952.63
2019-04-21T02:18:29.189Z,95949.86
2019-04-21T02:20:47.632Z,95942.18
2019-04-21T02:23:34.984Z,95940.65
2019-04-21T02:25:58.795Z,95936.14
2019-04-21T02:28:29.889Z,95935.16
2019-04-21T02:33:39.175Z,95936.27
2019-04-21T02:36:17.065Z,95930.67
2019-04-21T02:38:37.784Z,95931.48
2019-04-21T02:40:49.508Z,95928.91
2019-04-21T02:43:24.888Z,95929.63
2019-04-21T02:45:56.062Z,95929.24
2019-04-21T02:48:36.981Z,95928.27
2019-04-21T02:50:47.304Z,95927.27
2019-04-21T02:53:30.365Z,95926.67
2019-04-21T02:55:44.048Z,95918.33
2019-04-21T02:58:18.324Z,95916.72
2019-04-21T03:03:19.640Z,95917.23
2019-04-21T03:11:08.674Z,95908.23
2019-04-21T03:13:40.569Z,95904.45
2019-04-21T03:16:23.527Z,95903.16
2019-04-21T03:18:39.976Z,95904.97
2019-04-21T03:36:37.193Z,95890.84
2019-04-21T03:41:00.978Z,95881.58
2019-04-21T03:43:34.854Z,95884.77
2019-04-21T03:45:49.582Z,95881.66
2019-04-21T03:48:28.797Z,95879.81
2019-04-21T03:50:46.934Z,95882.55
2019-04-21T03:53:25.007Z,95876.82
2019-04-21T03:55:53.325Z,95875.44
2019-04-21T04:01:00.393Z,95878.02
2019-04-21T04:08:35.011Z,95880.70
2019-04-21T04:13:34.013Z,95874.45
2019-04-21T04:16:00.514Z,95873.80
2019-04-21T04:18:28.312Z,95875.69
2019-04-21T04:21:06.070Z,95873.91
2019-04-21T04:23:31.037Z,95875.39
2019-04-21T04:25:43.789Z,95873.41
2019-04-21T04:28:28.743Z,95877.95
2019-04-21T04:30:37.860Z,95870.81
2019-04-21T04:33:10.249Z,95872.19
2019-04-21T04:35:49.429Z,95872.36
2019-04-21T04:38:03.357Z,95872.70
2019-04-21T04:40:48.534Z,95874.42
2019-04-21T04:45:48.248Z,95872.38
2019-04-21T04:53:11.990Z,95857.64
2019-04-21T04:55:39.191Z,95858.94
2019-04-21T04:58:40.448Z,95856.34
2019-04-21T05:13:48.538Z,95846.93
2019-04-21T05:16:24.459Z,95845.28
2019-04-21T05:18:45.199Z,95852.49
2019-04-21T05:23:31.245Z,95855.71
2019-04-21T05:25:54.381Z,95854.41
2019-04-21T05:28:25.995Z,95854.24
2019-04-21T05:31:13.846Z,95853.02
2019-04-21T05:33:43.058Z,95851.37
2019-04-21T05:36:04.785Z,95848.55
2019-04-21T05:41:26.577Z,95847.46
2019-04-21T05:44:05.339Z,95844.77
2019-04-21T05:46:34.403Z,95845.23
2019-04-21T05:51:31.739Z,95848.06
2019-04-21T05:54:09.286Z,95847.71
2019-04-21T05:56:32.617Z,95849.30
2019-04-21T06:01:40.879Z,95848.02
2019-04-21T06:06:39.660Z,95842.97
2019-04-21T06:09:10.034Z,95840.53
2019-04-21T06:11:36.369Z,95839.19
2019-04-21T06:14:10.874Z,95841.11
2019-04-21T06:16:40.485Z,95839.56
2019-04-21T06:19:25.508Z,95837.53
2019-04-21T06:21:33.345Z,95836.06
2019-04-21T06:23:57.568Z,95835.62
2019-04-21T06:26:53.826Z,95828.20
2019-04-21T06:29:08.634Z,95825.50
2019-04-21T06:33:50.841Z,95824.23
2019-04-21T06:39:11.762Z,95826.16
2019-04-21T06:41:27.815Z,95827.09
2019-04-21T06:43:56.679Z,95828.61
2019-04-21T06:46:20.080Z,95830.88
2019-04-21T06:48:49.352Z,95825.42
2019-04-21T06:51:16.975Z,95817.00
2019-04-21T06:53:46.019Z,95817.95
2019-04-21T06:56:20.493Z,95817.21
2019-04-21T06:58:35.907Z,95813.64
2019-04-21T07:01:10.491Z,95813.08
2019-04-21T07:03:42.263Z,95811.91
2019-04-21T07:06:07.840Z,95811.36
2019-04-21T07:08:34.566Z,95806.67
2019-04-21T07:11:03.310Z,95806.88
2019-04-21T07:13:25.364Z,95803.44
2019-04-21T07:18:27.265Z,95792.34
2019-04-21T07:20:53.158Z,95791.82
2019-04-21T07:23:24.097Z,95790.64
2019-04-21T07:25:51.956Z,95784.81
2019-04-21T07:28:23.316Z,95788.08
2019-04-21T07:30:55.997Z,95786.27
2019-04-21T07:35:51.781Z,95782.97
2019-04-21T07:40:48.354Z,95777.05
2019-04-21T07:43:18.397Z,95781.47
2019-04-21T07:51:25.409Z,95774.12
2019-04-21T07:53:59.590Z,95778.09
2019-04-21T07:56:06.539Z,95778.36
2019-04-21T07:58:56.286Z,95776.39
2019-04-21T08:01:20.770Z,95775.52
2019-04-21T08:03:45.379Z,95773.63
2019-04-21T08:08:49.217Z,95770.28
2019-04-21T08:11:16.752Z,95770.33
2019-04-21T08:13:57.948Z,95770.72
2019-04-21T08:16:10.876Z,95768.70
2019-04-21T08:18:44.173Z,95764.13
2019-04-21T08:21:08.481Z,95769.02
2019-04-21T08:23:39.625Z,95765.38
2019-04-21T08:31:01.281Z,95759.40
2019-04-21T08:33:42.805Z,95760.53
2019-04-21T08:41:08.144Z,95752.34
2019-04-21T08:43:48.122Z,95747.87
2019-04-21T08:45:58.768Z,95747.14
2019-04-21T08:48:33.438Z,95741.95
2019-04-21T08:51:05.549Z,95737.85
2019-04-21T08:53:27.468Z,95743.28
2019-04-21T09:01:02.408Z,95735.66
2019-04-21T09:03:28.494Z,95735.52
2019-04-21T09:05:59.901Z,95737.47
2019-04-21T09:13:37.121Z,95725.87
2019-04-21T09:18:32.532Z,95718.91
2019-04-21T09:23:39.190Z,95714.47
2019-04-21T09:26:14.400Z,95705.84
2019-04-21T09:28:35.506Z,95714.59
2019-04-21T09:33:29.712Z,95705.33
2019-04-21T09:35:56.370Z,95695.58
2019-04-21T09:40:59.429Z,95698.98
2019-04-21T09:43:35.464Z,95692.77
2019-04-21T09:45:54.834Z,95693.29
2019-04-21T09:48:25.871Z,95686.92
2019-04-21T09:50:52.481Z,95686.58
2019-04-21T09:53:28.830Z,95684.90
2019-04-21T09:55:54.250Z,95679.94
2019-04-21T09:58:23.943Z,95674.80
2019-04-21T10:01:00.047Z,95670.84
2019-04-21T10:03:16.291Z,95662.10
2019-04-21T10:05:42.689Z,95660.84
2019-04-21T10:08:12.434Z,95662.56
2019-04-21T10:10:40.029Z,95663.23
2019-04-21T10:13:10.630Z,95661.25
2019-04-21T10:15:38.288Z,95663.38
2019-04-21T10:18:08.541Z,95655.81
2019-04-21T10:23:11.291Z,95646.38
2019-04-21T10:28:12.962Z,95636.00
2019-04-21T10:30:42.558Z,95637.80
2019-04-21T10:33:10.368Z,95627.39
2019-04-21T10:35:39.264Z,95614.44
2019-04-21T10:38:18.006Z,95622.52
2019-04-21T10:40:37.127Z,95623.27
2019-04-21T10:43:03.940Z,95625.48
2019-04-21T10:45:32.702Z,95616.56
2019-04-21T10:48:00.944Z,95610.77
2019-04-21T10:50:28.763Z,95609.53
2019-04-21T10:52:58.723Z,95608.74
2019-04-21T10:58:10.678Z,95593.81
2019-04-21T11:00:37.855Z,95599.70
2019-04-21T11:05:40.764Z,95592.21
2019-04-21T11:10:45.641Z,95597.38
2019-04-21T11:13:12.670Z,95586.98
2019-04-21T11:18:15.696Z,95580.56
2019-04-21T11:20:44.735Z,95571.20
2019-04-21T11:25:46.556Z,95572.27
2019-04-21T11:30:50.863Z,95572.77
2019-04-21T11:33:17.632Z,95572.41
2019-04-21T11:35:45.986Z,95564.45
2019-04-21T11:38:22.415Z,95560.86
2019-04-21T11:43:24.048Z,95567.00
2019-04-21T11:45:52.596Z,95568.62
2019-04-21T11:48:21.878Z,95554.89
2019-04-21T11:50:48.894Z,95541.77
2019-04-21T11:53:17.381Z,95541.91
2019-04-21T11:55:48.539Z,95544.87
2019-04-21T12:00:50.194Z,95543.48
2019-04-21T12:03:17.350Z,95547.68
2019-04-21T12:08:30.284Z,95527.50
2019-04-21T12:10:49.817Z,95544.84
2019-04-21T12:13:18.314Z,95543.58
2019-04-21T12:15:47.166Z,95533.00
2019-04-21T12:18:15.546Z,95533.90
2019-04-21T12:20:43.324Z,95528.91
2019-04-21T12:23:12.189Z,95528.37
2019-04-21T12:28:19.602Z,95525.12
2019-04-21T12:30:49.645Z,95527.61
2019-04-21T12:33:20.218Z,95528.02
2019-04-21T12:38:37.871Z,95518.72
2019-04-21T12:43:30.694Z,95503.98
2019-04-21T12:45:58.334Z,95507.91
2019-04-21T12:48:28.179Z,95500.53
2019-04-21T12:50:55.301Z,95497.59
2019-04-21T12:53:23.657Z,95511.78
2019-04-21T12:55:52.008Z,95501.42
2019-04-21T12:58:21.488Z,95493.09
2019-04-21T13:00:49.636Z,95488.45
2019-04-21T13:03:20.468Z,95480.30
2019-04-21T13:05:47.452Z,95480.41
2019-04-21T13:08:15.446Z,95475.32
2019-04-21T13:10:44.289Z,95477.57
2019-04-21T13:13:12.146Z,95480.67
2019-04-21T13:15:40.014Z,95472.02
2019-04-21T13:18:08.365Z,95472.53
2019-04-21T13:20:37.923Z,95465.83
2019-04-21T13:23:05.945Z,95457.36
2019-04-21T13:25:33.897Z,95452.88
2019-04-21T13:28:02.847Z,95458.81
2019-04-21T13:30:30.578Z,95451.56
2019-04-21T13:32:58.950Z,95447.27
2019-04-21T13:35:26.971Z,95443.89
2019-04-21T13:37:56.283Z,95435.33
2019-04-21T13:40:45.125Z,95432.36
2019-04-21T13:43:00.385Z,95432.05
2019-04-21T13:45:25.949Z,95430.02
2019-04-21T13:47:54.486Z,95427.64
2019-04-21T13:50:21.550Z,95423.20
2019-04-21T13:52:51.038Z,95420.03
2019-04-21T13:55:19.369Z,95416.28
2019-04-21T13:57:48.245Z,95417.17
2019-04-21T14:00:15.585Z,95410.39
2019-04-21T14:05:18.415Z,95398.88
2019-04-21T14:07:48.052Z,95404.09
2019-04-21T14:10:16.092Z,95394.19
2019-04-21T14:12:44.484Z,95389.95
2019-04-21T14:15:12.499Z,95389.56
2019-04-21T14:17:40.220Z,95386.89
2019-04-21T14:20:09.121Z,95391.17
2019-04-21T14:22:38.064Z,95387.63
2019-04-21T14:27:41.917Z,95390.28
2019-04-21T14:30:10.479Z,95378.92
2019-04-21T14:32:40.071Z,95380.40
2019-04-21T14:35:07.049Z,95374.72
2019-04-21T14:40:14.624Z,95377.08
2019-04-21T14:42:38.278Z,95367.66
2019-04-21T14:45:07.022Z,95364.83
2019-04-21T14:47:37.982Z,95362.02
2019-04-21T14:50:13.607Z,95360.13
2019-04-21T14:52:41.394Z,95359.00
2019-04-21T14:55:10.334Z,95358.08
2019-04-21T14:57:39.122Z,95357.66
2019-04-21T15:00:11.151Z,95362.08
2019-04-21T15:02:39.960Z,95356.70
2019-04-21T15:05:07.181Z,95355.33
2019-04-21T15:07:35.517Z,95351.12
2019-04-21T15:10:13.324Z,95350.95
2019-04-21T15:12:34.054Z,95346.76
2019-04-21T15:15:02.424Z,95341.17
2019-04-21T15:17:31.683Z,95344.64
2019-04-21T15:20:04.592Z,95346.97
2019-04-21T15:22:28.333Z,95349.22
2019-04-21T15:24:56.297Z,95345.31
2019-04-21T15:27:25.113Z,95340.77
2019-04-21T15:29:53.033Z,95341.55
2019-04-21T15:34:56.115Z,95338.05
2019-04-21T15:37:24.098Z,95331.13
2019-04-21T15:39:53.067Z,95330.55
2019-04-21T15:42:20.959Z,95329.28
2019-04-21T15:44:50.408Z,95327.06
2019-04-21T15:47:17.787Z,95329.09
2019-04-21T15:52:22.291Z,95324.14
2019-04-21T15:54:50.582Z,95315.21
2019-04-21T15:57:19.589Z,95307.44
2019-04-21T16:02:44.633Z,95310.27
2019-04-21T16:05:13.016Z,95307.64
2019-04-21T16:07:41.142Z,95311.72
2019-04-21T16:10:10.676Z,95307.88
2019-04-21T16:12:37.879Z,95312.10
2019-04-21T16:15:05.957Z,95304.62
2019-04-21T16:20:10.180Z,95304.27
2019-04-21T16:22:37.265Z,95302.01
2019-04-21T16:25:06.598Z,95299.05
2019-04-21T16:27:35.400Z,95299.05
2019-04-21T16:30:06.001Z,95301.95
2019-04-21T16:32:34.287Z,95296.53
2019-04-21T16:35:08.262Z,95294.95
2019-04-21T16:40:05.358Z,95294.64
2019-04-21T16:42:34.159Z,95293.30
2019-04-21T16:45:03.212Z,95290.03
2019-04-21T16:50:07.679Z,95288.17
2019-04-21T16:52:50.380Z,95287.73
2019-04-21T16:55:19.070Z,95287.75
2019-04-21T16:58:02.758Z,95283.74
2019-04-21T17:00:27.887Z,95281.95
2019-04-21T17:05:22.401Z,95281.47
2019-04-21T17:10:24.550Z,95279.44
2019-04-21T17:12:53.663Z,95284.92
2019-04-21T17:15:37.653Z,95288.21
2019-04-21T17:18:07.871Z,95287.62
2019-04-21T17:20:31.000Z,95291.13
2019-04-21T17:22:47.098Z,95286.55
2019-04-21T17:25:16.103Z,95288.27
2019-04-21T17:30:18.823Z,95290.06
2019-04-21T17:32:49.448Z,95289.42
2019-04-21T17:35:16.315Z,95288.86
2019-04-21T17:37:43.562Z,95288.50
2019-04-21T17:40:13.435Z,95288.23
2019-04-21T17:42:46.318Z,95286.72
2019-04-21T17:45:09.020Z,95286.49
2019-04-21T17:47:46.808Z,95280.93
2019-04-21T17:50:13.648Z,95282.00
2019-04-21T17:52:53.667Z,95284.59
2019-04-21T17:55:27.515Z,95284.81
2019-04-21T17:58:03.409Z,95287.34
2019-04-21T18:01:03.622Z,95287.41
2019-04-21T18:05:39.317Z,95287.48
2019-04-21T18:08:11.368Z,95290.44
2019-04-21T18:10:30.688Z,95295.27
2019-04-21T18:12:55.329Z,95297.81
2019-04-21T18:17:47.312Z,95297.17
2019-04-21T18:20:17.211Z,95298.97
2019-04-21T18:22:47.968Z,95299.23
2019-04-21T18:25:33.355Z,95299.52
2019-04-21T18:30:30.996Z,95296.80
2019-04-21T18:32:59.977Z,95295.81
2019-04-21T18:35:35.823Z,95300.88
2019-04-21T18:38:08.007Z,95302.98
2019-04-21T18:48:32.833Z,95315.88
2019-04-21T18:50:57.286Z,95317.05
2019-04-21T18:53:44.164Z,95320.13
2019-04-21T18:55:58.211Z,95317.67
2019-04-21T18:58:22.170Z,95317.20
2019-04-21T19:00:51.260Z,95314.71
2019-04-21T19:03:25.419Z,95318.16
2019-04-21T19:08:38.730Z,95315.86
2019-04-21T19:11:10.517Z,95312.72
2019-04-21T19:13:49.536Z,95313.52
2019-04-21T19:18:45.848Z,95308.45
2019-04-21T19:24:07.181Z,95312.09
2019-04-21T19:26:21.697Z,95313.00
2019-04-21T19:28:50.196Z,95310.11
2019-04-21T19:31:11.531Z,95313.25
2019-04-21T19:33:30.083Z,95309.11
2019-04-21T19:35:47.629Z,95311.88
2019-04-21T19:38:18.691Z,95315.95
2019-04-21T19:43:41.674Z,95313.63
2019-04-21T19:46:04.354Z,95314.92
2019-04-21T19:48:41.536Z,95315.53
2019-04-21T19:51:04.301Z,95311.78
2019-04-21T19:53:24.269Z,95311.91
2019-04-21T19:55:42.406Z,95309.98
2019-04-21T19:58:10.755Z,95307.05
2019-04-21T20:00:38.151Z,95301.98
2019-04-21T20:03:06.538Z,95304.69
2019-04-21T20:05:41.805Z,95304.83
2019-04-21T20:08:17.650Z,95306.37
2019-04-21T20:13:35.274Z,95304.77
2019-04-21T20:15:57.110Z,95307.92
2019-04-21T20:18:15.307Z,95307.63
2019-04-21T20:20:31.104Z,95306.23
2019-04-21T20:25:41.813Z,95296.92
2019-04-21T20:28:09.651Z,95292.44
2019-04-21T20:30:52.716Z,95290.32
2019-04-21T20:33:39.738Z,95287.75
2019-04-21T20:35:52.279Z,95284.56
2019-04-21T20:38:09.361Z,95282.52
2019-04-21T20:40:36.306Z,95275.48
2019-04-21T20:43:11.314Z,95274.52
2019-04-21T20:45:40.181Z,95274.05
2019-04-21T20:47:53.997Z,95271.30
2019-04-21T20:50:29.826Z,95274.41
2019-04-21T20:53:06.112Z,95271.78
2019-04-21T20:57:57.774Z,95280.46
2019-04-21T21:00:43.041Z,95277.41
2019-04-21T21:03:07.467Z,95275.11
2019-04-21T21:05:27.341Z,95273.48
2019-04-21T21:08:06.521Z,95274.63
2019-04-21T21:10:27.744Z,95277.20
2019-04-21T21:15:22.788Z,95271.49
2019-04-21T21:18:01.544Z,95268.32
2019-04-21T21:20:27.052Z,95264.67
2019-04-21T21:22:48.066Z,95261.31
2019-04-21T21:25:29.988Z,95260.48
2019-04-21T21:27:41.844Z,95257.41
2019-04-21T21:30:10.024Z,95245.96
2019-04-21T21:32:47.472Z,95243.64
2019-04-21T21:35:13.477Z,95243.59
2019-04-21T21:37:46.755Z,95243.19
2019-04-21T21:40:11.423Z,95246.45
2019-04-21T21:42:27.507Z,95242.43
2019-04-21T21:45:00.727Z,95241.84
2019-04-21T21:47:32.144Z,95237.14
2019-04-21T21:49:57.785Z,95240.76
2019-04-21T21:52:30.598Z,95237.66
2019-04-21T21:54:43.609Z,95238.56
2019-04-21T21:57:10.720Z,95236.75
2019-04-21T21:59:40.435Z,95236.84
2019-04-21T22:02:09.553Z,95230.03
2019-04-21T22:04:37.895Z,95233.20
2019-04-21T22:07:09.952Z,95232.11
2019-04-21T22:09:32.809Z,95222.32
2019-04-21T22:12:06.283Z,95221.92
2019-04-21T22:17:24.754Z,95220.63
2019-04-21T22:19:59.876Z,95218.50
2019-04-21T22:22:21.376Z,95221.25
2019-04-21T22:24:46.687Z,95216.28
2019-04-21T22:29:41.811Z,95213.70
2019-04-21T22:34:48.727Z,95218.00
2019-04-21T22:37:27.498Z,95222.44
2019-04-21T22:39:56.919Z,95215.42
2019-04-21T22:42:12.195Z,95214.14
2019-04-21T22:44:32.717Z,95211.42
2019-04-21T22:47:12.243Z,95212.94
2019-04-21T22:49:32.603Z,95213.98
2019-04-21T22:52:03.972Z,95215.98
2019-04-21T22:54:35.506Z,95212.66
2019-04-21T22:57:04.523Z,95215.01
2019-04-21T22:59:26.760Z,95212.19
2019-04-21T23:01:55.887Z,95212.22
2019-04-21T23:04:26.879Z,95209.81
2019-04-21T23:06:56.614Z,95209.24
2019-04-21T23:09:20.723Z,95210.70
2019-04-21T23:11:51.483Z,95218.78
2019-04-21T23:14:18.905Z,95210.97
2019-04-21T23:16:49.073Z,95208.52
2019-04-21T23:19:28.110Z,95204.22
2019-04-21T23:22:05.638Z,95205.98
2019-04-21T23:24:34.667Z,95201.09
2019-04-21T23:26:53.799Z,95198.56
2019-04-21T23:29:39.184Z,95198.16
2019-04-21T23:31:56.063Z,95195.26
2019-04-21T23:34:06.418Z,95193.84
2019-04-21T23:36:35.963Z,95191.06
2019-04-21T23:39:07.021Z,95190.68
2019-04-21T23:41:36.166Z,95193.86
2019-04-21T23:44:04.614Z,95185.13
2019-04-21T23:46:31.984Z,95186.88
2019-04-21T23:51:41.990Z,95180.58
2019-04-21T23:54:01.896Z,95178.63
2019-04-21T23:56:37.202Z,95177.63
2019-04-21T23:59:03.189Z,95176.16
